Time;durP1;ratioP1;P1;durP2;ratioP2;P2;SDS_P1;SDS_P2;PMS_P1;PMS_P2;Temp;Humidity;BMP_temperature;BMP_pressure;BME280_temperature;BME280_humidity;BME280_pressure;Samples;Min_cycle;Max_cycle;Signal;HPM_P1;HPM_P2
2023/03/11 00:00:29;;;;;;;7.57;2.63;;;;;;;;;;5044556;28;20078;-65
2023/03/11 00:02:56;;;;;;;8.25;2.58;;;;;;;;;;5045124;28;20450;-66
2023/03/11 00:05:24;;;;;;;5.65;2.75;;;;;;;;;;5019164;28;20029;-65
2023/03/11 00:07:51;;;;;;;5.72;2.20;;;;;;;;;;5037171;28;20150;-65
2023/03/11 00:10:20;;;;;;;11.27;3.80;;;;;;;;;;5031402;28;20042;-66
2023/03/11 00:12:46;;;;;;;6.53;2.65;;;;;;;;;;5036960;28;20056;-66
2023/03/11 00:15:13;;;;;;;4.90;1.85;;;;;;;;;;5036960;28;20838;-65
2023/03/11 00:17:40;;;;;;;7.00;2.80;;;;;;;;;;5035422;28;20056;-66
2023/03/11 00:20:08;;;;;;;10.13;3.45;;;;;;;;;;5013301;28;20189;-67
2023/03/11 00:22:35;;;;;;;6.78;3.03;;;;;;;;;;5015799;28;20033;-64
2023/03/11 00:25:02;;;;;;;8.88;3.75;;;;;;;;;;5036738;28;20098;-67
2023/03/11 00:27:29;;;;;;;8.77;3.42;;;;;;;;;;4997753;28;20117;-65
2023/03/11 00:29:55;;;;;;;4.45;1.63;;;;;;;;;;5036160;28;20411;-64
2023/03/11 00:32:22;;;;;;;3.88;1.65;;;;;;;;;;5011566;28;20080;-66
2023/03/11 00:34:49;;;;;;;4.03;2.38;;;;;;;;;;5035924;28;20049;-65
2023/03/11 00:37:15;;;;;;;4.80;2.00;;;;;;;;;;5036175;28;20575;-64
2023/03/11 00:39:42;;;;;;;7.53;2.95;;;;;;;;;;5035536;28;20041;-65
2023/03/11 00:42:08;;;;;;;5.25;2.15;;;;;;;;;;5036402;28;20045;-66
2023/03/11 00:44:35;;;;;;;3.67;1.75;;;;;;;;;;5035831;28;20142;-64
2023/03/11 00:47:02;;;;;;;5.38;2.15;;;;;;;;;;5036109;28;20124;-66
2023/03/11 00:49:29;;;;;;;7.00;2.00;;;;;;;;;;5031288;28;20041;-65
2023/03/11 00:51:56;;;;;;;4.68;2.45;;;;;;;;;;5037940;28;20800;-65
2023/03/11 00:54:23;;;;;;;3.00;1.55;;;;;;;;;;4992330;28;21069;-66
2023/03/11 00:56:50;;;;;;;5.88;2.53;;;;;;;;;;4976675;28;20112;-68
2023/03/11 00:59:17;;;;;;;8.00;2.47;;;;;;;;;;4991931;28;20046;-65
2023/03/11 01:01:43;;;;;;;3.30;1.25;;;;;;;;;;4989856;28;20114;-64
2023/03/11 01:04:10;;;;;;;7.68;2.55;;;;;;;;;;4991069;28;20050;-66
2023/03/11 01:06:36;;;;;;;5.60;2.00;;;;;;;;;;4978001;28;20505;-66
2023/03/11 01:09:04;;;;;;;2.50;1.52;;;;;;;;;;4993753;28;20034;-65
2023/03/11 01:11:31;;;;;;;4.43;1.70;;;;;;;;;;4991104;28;20724;-66
2023/03/11 01:13:57;;;;;;;4.10;2.38;;;;;;;;;;4991830;28;20044;-66
2023/03/11 01:16:24;;;;;;;2.60;1.48;;;;;;;;;;4991014;28;20041;-64
2023/03/11 01:18:51;;;;;;;2.65;1.35;;;;;;;;;;4962362;28;20052;-65
2023/03/11 01:21:17;;;;;;;3.00;1.13;;;;;;;;;;4989103;28;20980;-67
2023/03/11 01:23:44;;;;;;;6.63;2.55;;;;;;;;;;4996623;28;20509;-66
2023/03/11 01:26:11;;;;;;;5.53;2.53;;;;;;;;;;4996122;28;20123;-65
2023/03/11 01:28:38;;;;;;;6.03;2.05;;;;;;;;;;4976188;28;20037;-66
2023/03/11 01:31:04;;;;;;;7.47;2.72;;;;;;;;;;4998813;28;20113;-64
2023/03/11 01:33:31;;;;;;;2.95;1.25;;;;;;;;;;5016536;28;20072;-67
2023/03/11 01:36:19;;;;;;;4.88;1.77;;;;;;;;;;4986398;28;20065;-64
2023/03/11 01:38:45;;;;;;;3.15;1.33;;;;;;;;;;4994129;28;20038;-66
2023/03/11 01:41:12;;;;;;;0.80;0.63;;;;;;;;;;4995240;28;22032;-65
2023/03/11 01:43:41;;;;;;;6.13;2.13;;;;;;;;;;4994520;28;20053;-66
2023/03/11 01:46:08;;;;;;;5.78;2.35;;;;;;;;;;4994865;28;20037;-66
2023/03/11 01:48:34;;;;;;;5.65;1.48;;;;;;;;;;4994030;28;20088;-67
2023/03/11 01:51:01;;;;;;;2.42;0.85;;;;;;;;;;4975250;28;20049;-64
2023/03/11 01:53:29;;;;;;;4.88;1.42;;;;;;;;;;4997207;28;20263;-63
2023/03/11 01:55:56;;;;;;;3.63;1.58;;;;;;;;;;4997247;28;20042;-65
2023/03/11 01:58:25;;;;;;;5.22;1.65;;;;;;;;;;4995139;28;20514;-66
2023/03/11 02:00:52;;;;;;;3.72;1.95;;;;;;;;;;4995600;28;20077;-67
2023/03/11 02:03:24;;;;;;;5.97;3.05;;;;;;;;;;4994404;28;21892;-70
2023/03/11 02:05:51;;;;;;;3.10;1.63;;;;;;;;;;4994232;28;20060;-66
2023/03/11 02:08:18;;;;;;;10.25;3.20;;;;;;;;;;4992818;28;20045;-64
2023/03/11 02:10:46;;;;;;;3.60;1.75;;;;;;;;;;4993736;28;20384;-65
2023/03/11 02:13:13;;;;;;;8.50;2.95;;;;;;;;;;4999548;28;20072;-65
2023/03/11 02:15:39;;;;;;;7.93;2.45;;;;;;;;;;5014968;28;20576;-66
2023/03/11 02:18:26;;;;;;;5.70;1.05;;;;;;;;;;5016249;28;20049;-68
2023/03/11 02:21:05;;;;;;;7.18;2.40;;;;;;;;;;4975128;28;20045;-65
2023/03/11 02:23:36;;;;;;;4.22;1.88;;;;;;;;;;4974751;28;21031;-66
2023/03/11 02:26:09;;;;;;;1.70;1.02;;;;;;;;;;4975951;28;20050;-67
2023/03/11 02:28:37;;;;;;;2.67;1.25;;;;;;;;;;4974345;28;20034;-68
2023/03/11 02:31:04;;;;;;;6.95;2.92;;;;;;;;;;4959025;28;20034;-67
2023/03/11 02:33:32;;;;;;;3.13;1.80;;;;;;;;;;4953808;28;20049;-66
2023/03/11 02:36:01;;;;;;;3.03;1.40;;;;;;;;;;4959612;28;20058;-66
2023/03/11 02:38:28;;;;;;;3.58;1.92;;;;;;;;;;4975124;28;20118;-66
2023/03/11 02:40:56;;;;;;;6.82;1.60;;;;;;;;;;4975633;28;20153;-67
2023/03/11 02:43:25;;;;;;;4.13;1.98;;;;;;;;;;4950075;28;20041;-67
2023/03/11 02:45:51;;;;;;;6.78;2.83;;;;;;;;;;4975753;28;20058;-65
2023/03/11 02:48:18;;;;;;;3.78;1.65;;;;;;;;;;4975706;28;20038;-66
2023/03/11 02:50:46;;;;;;;5.70;1.65;;;;;;;;;;4975131;28;20169;-67
2023/03/11 02:53:13;;;;;;;6.10;3.47;;;;;;;;;;4976101;28;20210;-65
2023/03/11 02:55:39;;;;;;;1.88;0.73;;;;;;;;;;4975556;28;20062;-65
2023/03/11 02:58:06;;;;;;;6.22;2.65;;;;;;;;;;4998752;28;20515;-66
2023/03/11 03:00:33;;;;;;;3.33;1.48;;;;;;;;;;5036609;28;20037;-65
2023/03/11 03:03:00;;;;;;;4.13;2.35;;;;;;;;;;5036309;28;20047;-65
2023/03/11 03:05:26;;;;;;;6.82;2.20;;;;;;;;;;5036704;28;20056;-67
2023/03/11 03:07:53;;;;;;;3.13;2.08;;;;;;;;;;5036288;28;20040;-66
2023/03/11 03:10:21;;;;;;;9.00;2.83;;;;;;;;;;5037491;28;20041;-66
2023/03/11 03:12:48;;;;;;;5.65;1.58;;;;;;;;;;5036861;28;20047;-66
2023/03/11 03:15:14;;;;;;;2.83;1.48;;;;;;;;;;5036939;28;20159;-66
2023/03/11 03:17:41;;;;;;;6.47;2.33;;;;;;;;;;5036258;28;20045;-66
2023/03/11 03:20:10;;;;;;;7.82;2.92;;;;;;;;;;5036928;28;20062;-69
2023/03/11 03:22:37;;;;;;;11.75;2.80;;;;;;;;;;5034445;28;20083;-65
2023/03/11 03:25:04;;;;;;;4.50;2.03;;;;;;;;;;5036377;28;20082;-67
2023/03/11 03:27:31;;;;;;;4.72;2.03;;;;;;;;;;5036193;28;20044;-67
2023/03/11 03:30:01;;;;;;;7.13;2.80;;;;;;;;;;5034672;28;20549;-66
2023/03/11 03:32:28;;;;;;;2.30;1.45;;;;;;;;;;5036388;28;20045;-65
2023/03/11 03:34:57;;;;;;;4.28;1.77;;;;;;;;;;5032831;28;20037;-66
2023/03/11 03:37:27;;;;;;;6.60;2.35;;;;;;;;;;5037616;28;20056;-66
2023/03/11 03:39:54;;;;;;;9.00;2.53;;;;;;;;;;5039622;28;20139;-66
2023/03/11 03:42:23;;;;;;;7.22;1.98;;;;;;;;;;5019484;28;20045;-66
2023/03/11 03:44:54;;;;;;;5.65;1.95;;;;;;;;;;5036456;28;20072;-67
2023/03/11 03:47:20;;;;;;;5.03;2.05;;;;;;;;;;5033764;28;20040;-66
2023/03/11 03:49:47;;;;;;;3.38;1.95;;;;;;;;;;5012997;28;20094;-66
2023/03/11 03:52:14;;;;;;;3.85;1.75;;;;;;;;;;5015731;28;20123;-65
2023/03/11 03:54:40;;;;;;;7.28;2.25;;;;;;;;;;5032887;28;20398;-66
2023/03/11 03:57:07;;;;;;;4.65;1.60;;;;;;;;;;5017964;28;20047;-66
2023/03/11 03:59:34;;;;;;;6.28;1.65;;;;;;;;;;5034115;28;20101;-68
2023/03/11 04:02:02;;;;;;;3.50;1.35;;;;;;;;;;5014439;28;20032;-67
2023/03/11 04:04:28;;;;;;;4.32;2.13;;;;;;;;;;5034715;28;20108;-66
2023/03/11 04:06:55;;;;;;;7.80;2.97;;;;;;;;;;5034947;28;20056;-67
2023/03/11 04:09:21;;;;;;;5.22;2.22;;;;;;;;;;5034128;28;20041;-67
2023/03/11 04:11:48;;;;;;;5.20;2.85;;;;;;;;;;5034084;28;20034;-66
2023/03/11 04:14:15;;;;;;;6.40;2.65;;;;;;;;;;5033962;28;20044;-68
2023/03/11 04:16:42;;;;;;;5.55;2.28;;;;;;;;;;5033394;28;20067;-67
2023/03/11 04:19:08;;;;;;;6.55;2.20;;;;;;;;;;5034170;28;20640;-66
2023/03/11 04:21:35;;;;;;;6.05;2.95;;;;;;;;;;5033525;28;20037;-67
2023/03/11 04:24:02;;;;;;;6.05;2.28;;;;;;;;;;5034414;28;21744;-67
2023/03/11 04:26:28;;;;;;;3.20;1.48;;;;;;;;;;5034325;28;20119;-68
2023/03/11 04:28:55;;;;;;;5.88;2.72;;;;;;;;;;5033875;28;20393;-66
2023/03/11 04:31:22;;;;;;;4.70;2.38;;;;;;;;;;5033877;28;20029;-67
2023/03/11 04:33:48;;;;;;;5.13;1.88;;;;;;;;;;5033966;28;20037;-67
2023/03/11 04:36:15;;;;;;;7.32;2.95;;;;;;;;;;5035027;28;20080;-65
2023/03/11 04:38:41;;;;;;;3.80;1.42;;;;;;;;;;5023206;28;20186;-68
2023/03/11 04:41:08;;;;;;;7.03;2.40;;;;;;;;;;5033863;28;20502;-67
2023/03/11 04:43:35;;;;;;;3.78;1.70;;;;;;;;;;5033751;28;20061;-68
2023/03/11 04:46:01;;;;;;;3.88;1.55;;;;;;;;;;5034798;28;20049;-67
2023/03/11 04:48:28;;;;;;;6.90;2.45;;;;;;;;;;5011244;28;20048;-66
2023/03/11 04:50:55;;;;;;;18.40;3.13;;;;;;;;;;5029239;28;20041;-66
2023/03/11 04:53:21;;;;;;;3.05;1.42;;;;;;;;;;5034423;28;21764;-67
2023/03/11 04:55:49;;;;;;;6.55;2.35;;;;;;;;;;5038886;28;20037;-66
2023/03/11 04:58:16;;;;;;;5.90;2.45;;;;;;;;;;5037826;28;20052;-65
2023/03/11 05:00:42;;;;;;;12.73;3.33;;;;;;;;;;5038259;28;20041;-66
2023/03/11 05:03:09;;;;;;;7.18;4.22;;;;;;;;;;5037777;28;20102;-67
2023/03/11 05:05:35;;;;;;;5.75;1.92;;;;;;;;;;5037678;28;20041;-66
2023/03/11 05:08:02;;;;;;;9.48;3.42;;;;;;;;;;5037319;28;20045;-66
2023/03/11 05:10:29;;;;;;;6.32;2.72;;;;;;;;;;5037616;28;20041;-68
2023/03/11 05:12:55;;;;;;;7.03;2.58;;;;;;;;;;5038173;28;20079;-65
2023/03/11 05:15:22;;;;;;;7.38;2.33;;;;;;;;;;5037275;28;20044;-68
2023/03/11 05:17:49;;;;;;;5.82;2.80;;;;;;;;;;5036859;28;20056;-68
2023/03/11 05:20:16;;;;;;;9.48;3.03;;;;;;;;;;5037429;28;20064;-67
2023/03/11 05:22:42;;;;;;;3.17;1.60;;;;;;;;;;5037273;28;20563;-67
2023/03/11 05:25:09;;;;;;;4.53;2.20;;;;;;;;;;5038166;28;20048;-66
2023/03/11 05:27:36;;;;;;;5.70;1.92;;;;;;;;;;5037853;28;20103;-67
2023/03/11 05:30:03;;;;;;;4.75;2.20;;;;;;;;;;5039415;28;20095;-67
2023/03/11 05:32:30;;;;;;;7.15;2.20;;;;;;;;;;5039119;28;20037;-67
2023/03/11 05:34:56;;;;;;;8.98;3.05;;;;;;;;;;5043308;28;20075;-66
2023/03/11 05:37:23;;;;;;;9.60;3.30;;;;;;;;;;5050452;28;20056;-70
2023/03/11 05:39:51;;;;;;;6.13;2.50;;;;;;;;;;5050848;28;20033;-66
2023/03/11 05:42:17;;;;;;;7.78;3.20;;;;;;;;;;5051408;28;20092;-66
2023/03/11 05:44:44;;;;;;;7.78;3.92;;;;;;;;;;5043107;28;20057;-65
2023/03/11 05:47:11;;;;;;;5.55;1.98;;;;;;;;;;5037887;28;20549;-66
2023/03/11 05:49:37;;;;;;;7.45;2.60;;;;;;;;;;5036608;28;20459;-66
2023/03/11 05:52:04;;;;;;;4.10;2.15;;;;;;;;;;5037195;28;20390;-65
2023/03/11 05:54:32;;;;;;;4.68;2.17;;;;;;;;;;5036500;28;20052;-67
2023/03/11 05:56:58;;;;;;;6.20;2.33;;;;;;;;;;5036908;28;20730;-66
2023/03/11 05:59:25;;;;;;;5.43;2.25;;;;;;;;;;5035389;28;20064;-67
2023/03/11 06:01:53;;;;;;;4.43;2.42;;;;;;;;;;5019033;28;21714;-69
2023/03/11 06:04:20;;;;;;;6.10;2.70;;;;;;;;;;5035686;28;20056;-66
2023/03/11 06:06:46;;;;;;;8.15;3.72;;;;;;;;;;4992540;28;20047;-66
2023/03/11 06:09:13;;;;;;;5.63;2.50;;;;;;;;;;4992888;28;20029;-66
2023/03/11 06:11:40;;;;;;;5.88;2.58;;;;;;;;;;4992859;28;20048;-70
2023/03/11 06:14:07;;;;;;;7.38;2.28;;;;;;;;;;4994356;28;20045;-67
2023/03/11 06:16:33;;;;;;;3.67;1.85;;;;;;;;;;4992626;28;20050;-69
2023/03/11 06:19:00;;;;;;;3.40;1.77;;;;;;;;;;4993896;28;20091;-66
2023/03/11 06:21:28;;;;;;;1.73;0.90;;;;;;;;;;4993586;28;20189;-69
2023/03/11 06:23:54;;;;;;;7.72;3.45;;;;;;;;;;4993243;28;20034;-67
2023/03/11 06:26:22;;;;;;;4.70;1.92;;;;;;;;;;4993890;28;20038;-67
2023/03/11 06:28:49;;;;;;;12.77;1.60;;;;;;;;;;4991805;28;20049;-67
2023/03/11 06:31:25;;;;;;;2.58;0.95;;;;;;;;;;4991972;28;20511;-64
2023/03/11 06:33:54;;;;;;;6.13;2.40;;;;;;;;;;4992873;28;20081;-68
2023/03/11 06:36:22;;;;;;;2.15;1.75;;;;;;;;;;4992327;28;20495;-66
2023/03/11 06:38:49;;;;;;;5.75;2.33;;;;;;;;;;4995302;28;20783;-66
2023/03/11 06:41:15;;;;;;;4.68;1.80;;;;;;;;;;4992760;28;20613;-67
2023/03/11 06:43:42;;;;;;;3.15;1.50;;;;;;;;;;5004349;28;20079;-68
2023/03/11 06:46:10;;;;;;;4.53;2.67;;;;;;;;;;5036432;28;20175;-69
2023/03/11 06:48:37;;;;;;;5.15;2.08;;;;;;;;;;5035830;28;20144;-66
2023/03/11 06:51:04;;;;;;;11.00;1.55;;;;;;;;;;5036991;28;20044;-66
2023/03/11 06:53:30;;;;;;;4.32;1.83;;;;;;;;;;5036547;28;20520;-67
2023/03/11 06:56:07;;;;;;;2.40;1.20;;;;;;;;;;5037306;28;21684;-68
2023/03/11 06:58:34;;;;;;;5.15;1.80;;;;;;;;;;5016569;28;20040;-67
2023/03/11 07:01:02;;;;;;;4.97;2.47;;;;;;;;;;5035749;28;20117;-68
2023/03/11 07:03:29;;;;;;;8.60;2.58;;;;;;;;;;5034329;28;20036;-68
2023/03/11 07:05:56;;;;;;;1.45;0.68;;;;;;;;;;5035030;28;20408;-66
2023/03/11 07:08:22;;;;;;;3.80;2.17;;;;;;;;;;5034630;28;20059;-67
2023/03/11 07:11:00;;;;;;;6.43;3.38;;;;;;;;;;5036958;28;20044;-69
2023/03/11 07:13:26;;;;;;;12.55;3.10;;;;;;;;;;5015669;28;20375;-68
2023/03/11 07:16:04;;;;;;;3.78;1.35;;;;;;;;;;5035466;28;20051;-66
2023/03/11 07:18:30;;;;;;;6.32;2.55;;;;;;;;;;5037018;28;20057;-65
2023/03/11 07:20:57;;;;;;;5.70;2.40;;;;;;;;;;5038870;28;20436;-65
2023/03/11 07:23:24;;;;;;;5.38;3.10;;;;;;;;;;5040762;28;20044;-66
2023/03/11 07:25:51;;;;;;;4.25;1.75;;;;;;;;;;5037969;28;20037;-66
2023/03/11 07:28:18;;;;;;;5.60;2.00;;;;;;;;;;5035395;28;20040;-65
2023/03/11 07:30:47;;;;;;;5.88;2.67;;;;;;;;;;5037068;28;20171;-66
2023/03/11 07:33:14;;;;;;;8.93;3.78;;;;;;;;;;5036381;28;20041;-65
2023/03/11 07:35:42;;;;;;;4.97;1.95;;;;;;;;;;5013655;28;20056;-66
2023/03/11 07:38:08;;;;;;;3.75;1.52;;;;;;;;;;5016166;28;20167;-67
2023/03/11 07:40:35;;;;;;;6.55;1.92;;;;;;;;;;5000244;28;20567;-67
2023/03/11 07:43:02;;;;;;;5.07;2.35;;;;;;;;;;5012232;28;20037;-66
2023/03/11 07:45:29;;;;;;;4.10;1.83;;;;;;;;;;5033091;28;20049;-65
2023/03/11 07:47:56;;;;;;;6.82;2.85;;;;;;;;;;5034411;28;20417;-67
2023/03/11 07:50:22;;;;;;;4.30;1.95;;;;;;;;;;5034079;28;20041;-69
2023/03/11 07:52:49;;;;;;;8.43;3.30;;;;;;;;;;5023432;28;20509;-67
2023/03/11 07:55:16;;;;;;;3.95;2.20;;;;;;;;;;5034372;28;20978;-67
2023/03/11 07:57:42;;;;;;;3.90;2.35;;;;;;;;;;5016447;28;22227;-67
2023/03/11 08:00:11;;;;;;;4.63;1.50;;;;;;;;;;5035581;28;20526;-66
2023/03/11 08:02:38;;;;;;;4.00;2.22;;;;;;;;;;5033247;28;20033;-67
2023/03/11 08:05:05;;;;;;;6.40;1.85;;;;;;;;;;5035087;28;20052;-67
2023/03/11 08:07:32;;;;;;;3.42;2.13;;;;;;;;;;5016276;28;20061;-66
2023/03/11 08:09:59;;;;;;;4.15;1.77;;;;;;;;;;5018269;28;20048;-67
2023/03/11 08:12:25;;;;;;;2.83;1.85;;;;;;;;;;5024250;28;20037;-67
2023/03/11 08:14:52;;;;;;;2.70;1.42;;;;;;;;;;5033684;28;20098;-67
2023/03/11 08:17:19;;;;;;;4.32;2.35;;;;;;;;;;5017010;28;20053;-68
2023/03/11 08:19:45;;;;;;;4.22;1.88;;;;;;;;;;5034937;28;20045;-67
2023/03/11 08:22:12;;;;;;;7.10;2.30;;;;;;;;;;5035289;28;20033;-67
2023/03/11 08:24:38;;;;;;;4.50;2.35;;;;;;;;;;5034226;28;20049;-68
2023/03/11 08:27:05;;;;;;;8.70;3.17;;;;;;;;;;5017043;28;20682;-69
2023/03/11 08:29:32;;;;;;;4.35;2.33;;;;;;;;;;5034141;28;20148;-67
2023/03/11 08:31:58;;;;;;;3.78;1.27;;;;;;;;;;5036345;28;20509;-66
2023/03/11 08:34:26;;;;;;;5.50;2.25;;;;;;;;;;5034960;28;20043;-67
2023/03/11 08:36:53;;;;;;;6.00;3.15;;;;;;;;;;5035638;28;20531;-68
2023/03/11 08:39:19;;;;;;;3.97;2.45;;;;;;;;;;5034715;28;20037;-70
2023/03/11 08:41:47;;;;;;;4.30;2.20;;;;;;;;;;5038400;28;20468;-67
2023/03/11 08:44:14;;;;;;;2.47;1.23;;;;;;;;;;5038150;28;20056;-68
2023/03/11 08:46:41;;;;;;;3.63;2.20;;;;;;;;;;5036273;28;20040;-66
2023/03/11 08:49:07;;;;;;;5.28;2.13;;;;;;;;;;5035241;28;20741;-67
2023/03/11 08:51:34;;;;;;;2.88;1.40;;;;;;;;;;5033762;28;20086;-67
2023/03/11 08:54:01;;;;;;;15.45;2.20;;;;;;;;;;5034774;28;20112;-66
2023/03/11 08:56:28;;;;;;;5.28;2.33;;;;;;;;;;5034351;28;20045;-65
2023/03/11 08:58:55;;;;;;;3.55;2.13;;;;;;;;;;5016450;28;20072;-67
2023/03/11 09:01:22;;;;;;;7.93;1.77;;;;;;;;;;5034514;28;20195;-70
2023/03/11 09:03:49;;;;;;;6.15;2.40;;;;;;;;;;5035236;28;20048;-67
2023/03/11 09:06:16;;;;;;;5.47;2.60;;;;;;;;;;5035154;28;20037;-66
2023/03/11 09:08:44;;;;;;;7.00;2.67;;;;;;;;;;5033546;28;20043;-69
2023/03/11 09:11:12;;;;;;;5.63;2.47;;;;;;;;;;5036390;28;20518;-68
2023/03/11 09:13:39;;;;;;;4.05;2.20;;;;;;;;;;5012877;28;20045;-67
2023/03/11 09:16:07;;;;;;;6.60;1.50;;;;;;;;;;5016837;28;20634;-66
2023/03/11 09:18:34;;;;;;;6.20;2.15;;;;;;;;;;5033717;28;20045;-67
2023/03/11 09:21:01;;;;;;;7.47;2.78;;;;;;;;;;5035759;28;20033;-67
2023/03/11 09:23:27;;;;;;;5.10;2.38;;;;;;;;;;5034685;28;20040;-67
2023/03/11 09:25:54;;;;;;;15.25;3.38;;;;;;;;;;5034889;28;20037;-68
2023/03/11 09:28:21;;;;;;;9.13;3.30;;;;;;;;;;5033453;28;20819;-68
2023/03/11 09:30:47;;;;;;;3.85;1.48;;;;;;;;;;5034797;28;20049;-68
2023/03/11 09:33:14;;;;;;;2.65;1.98;;;;;;;;;;5035107;28;20083;-68
2023/03/11 09:35:40;;;;;;;4.93;1.80;;;;;;;;;;5032418;28;20805;-67
2023/03/11 09:38:07;;;;;;;4.68;2.42;;;;;;;;;;5034628;28;20494;-67
2023/03/11 09:40:46;;;;;;;7.70;3.58;;;;;;;;;;5036699;28;20044;-67
2023/03/11 09:43:25;;;;;;;5.15;1.48;;;;;;;;;;5035080;28;20056;-67
2023/03/11 09:46:06;;;;;;;4.00;1.60;;;;;;;;;;5037358;28;20100;-68
2023/03/11 09:48:37;;;;;;;3.60;2.00;;;;;;;;;;5019218;28;20037;-67
2023/03/11 09:51:13;;;;;;;3.70;1.40;;;;;;;;;;5038388;28;20036;-67
2023/03/11 09:53:44;;;;;;;7.70;2.28;;;;;;;;;;5038015;28;20110;-68
2023/03/11 09:56:18;;;;;;;4.68;2.25;;;;;;;;;;5038104;28;20040;-68
2023/03/11 09:58:47;;;;;;;12.95;4.53;;;;;;;;;;5037893;28;20045;-67
2023/03/11 10:01:26;;;;;;;8.63;3.50;;;;;;;;;;5027393;28;20047;-66
2023/03/11 10:03:56;;;;;;;9.95;2.35;;;;;;;;;;5037105;28;20041;-67
2023/03/11 10:06:24;;;;;;;5.53;1.83;;;;;;;;;;5036953;28;20170;-67
2023/03/11 10:09:03;;;;;;;15.82;3.70;;;;;;;;;;5036494;28;20045;-67
2023/03/11 10:11:48;;;;;;;2.50;1.65;;;;;;;;;;5037077;28;20398;-66
2023/03/11 10:14:33;;;;;;;3.50;1.60;;;;;;;;;;5038201;28;20033;-66
2023/03/11 10:17:08;;;;;;;4.50;1.20;;;;;;;;;;5036395;28;20202;-66
2023/03/11 10:19:53;;;;;;;2.30;1.38;;;;;;;;;;5037883;28;20041;-67
2023/03/11 10:22:39;;;;;;;5.65;2.25;;;;;;;;;;5036670;28;20118;-67
2023/03/11 10:25:09;;;;;;;11.43;5.30;;;;;;;;;;5038034;28;20045;-66
2023/03/11 10:27:55;;;;;;;0.65;0.65;;;;;;;;;;5036749;28;20135;-67
2023/03/11 10:30:25;;;;;;;8.02;3.75;;;;;;;;;;5037312;28;20181;-66
2023/03/11 10:33:01;;;;;;;7.53;3.17;;;;;;;;;;5036780;28;20646;-66
2023/03/11 10:35:32;;;;;;;2.85;1.92;;;;;;;;;;5036767;28;20397;-67
2023/03/11 10:38:16;;;;;;;3.53;2.30;;;;;;;;;;5036385;28;21835;-67
2023/03/11 10:40:44;;;;;;;2.65;1.60;;;;;;;;;;5036842;28;20369;-67
2023/03/11 10:43:16;;;;;;;4.30;2.72;;;;;;;;;;5035887;28;20060;-67
2023/03/11 10:45:44;;;;;;;10.00;3.63;;;;;;;;;;5036100;28;20045;-67
2023/03/11 10:48:14;;;;;;;8.18;4.35;;;;;;;;;;5036196;28;20106;-67
2023/03/11 10:51:01;;;;;;;4.63;2.70;;;;;;;;;;5035370;28;20056;-67
2023/03/11 10:53:28;;;;;;;9.32;3.35;;;;;;;;;;5036274;28;20864;-66
2023/03/11 10:55:56;;;;;;;10.15;4.07;;;;;;;;;;5036910;28;20053;-66
2023/03/11 10:58:25;;;;;;;1.35;0.82;;;;;;;;;;5035401;28;20037;-66
2023/03/11 11:01:03;;;;;;;10.20;3.95;;;;;;;;;;5036963;28;20885;-65
2023/03/11 11:03:29;;;;;;;8.13;3.80;;;;;;;;;;5035598;28;20049;-66
2023/03/11 11:05:57;;;;;;;10.05;4.03;;;;;;;;;;5036643;28;20041;-66
2023/03/11 11:08:24;;;;;;;9.82;5.43;;;;;;;;;;5035289;28;20116;-66
2023/03/11 11:10:57;;;;;;;5.55;3.08;;;;;;;;;;5036757;28;20047;-66
2023/03/11 11:13:25;;;;;;;18.27;4.70;;;;;;;;;;5035373;28;20373;-66
2023/03/11 11:15:54;;;;;;;10.18;4.97;;;;;;;;;;5037755;28;20864;-66
2023/03/11 11:18:23;;;;;;;10.85;4.30;;;;;;;;;;5034433;28;20506;-68
2023/03/11 11:20:55;;;;;;;16.15;5.20;;;;;;;;;;5036081;28;20072;-66
2023/03/11 11:23:39;;;;;;;9.48;2.72;;;;;;;;;;5035484;28;20494;-68
2023/03/11 11:26:14;;;;;;;5.97;4.65;;;;;;;;;;5036392;28;20555;-69
2023/03/11 11:28:40;;;;;;;8.10;3.90;;;;;;;;;;5035144;28;21823;-67
2023/03/11 11:31:19;;;;;;;1.15;0.93;;;;;;;;;;5040534;28;20063;-67
2023/03/11 11:33:49;;;;;;;2.65;1.75;;;;;;;;;;5044943;28;20041;-67
2023/03/11 11:36:17;;;;;;;4.05;2.20;;;;;;;;;;5040223;28;20437;-67
2023/03/11 11:38:44;;;;;;;3.10;1.83;;;;;;;;;;5037423;28;20393;-67
2023/03/11 11:41:15;;;;;;;4.13;3.00;;;;;;;;;;5038064;28;20041;-68
2023/03/11 11:43:46;;;;;;;11.85;2.63;;;;;;;;;;5034907;28;20056;-68
2023/03/11 11:46:19;;;;;;;18.48;6.38;;;;;;;;;;5035629;28;20041;-68
2023/03/11 11:49:04;;;;;;;2.75;1.63;;;;;;;;;;5034887;28;20041;-68
2023/03/11 11:51:34;;;;;;;2.72;1.67;;;;;;;;;;5035219;28;20040;-67
2023/03/11 11:54:06;;;;;;;5.40;2.03;;;;;;;;;;5035474;28;20142;-68
2023/03/11 11:56:33;;;;;;;12.87;4.60;;;;;;;;;;5034883;28;20049;-68
2023/03/11 11:58:59;;;;;;;3.45;2.03;;;;;;;;;;5034610;28;20642;-68
2023/03/11 12:01:49;;;;;;;24.20;4.63;;;;;;;;;;5035257;28;20041;-68
2023/03/11 12:04:36;;;;;;;2.47;1.42;;;;;;;;;;4987950;28;20197;-67
2023/03/11 12:07:09;;;;;;;9.38;3.65;;;;;;;;;;5033599;28;20037;-67
2023/03/11 12:09:36;;;;;;;16.93;5.37;;;;;;;;;;5017288;28;20128;-67
2023/03/11 12:12:09;;;;;;;9.68;3.20;;;;;;;;;;5035370;28;20356;-67
2023/03/11 12:14:43;;;;;;;5.18;3.05;;;;;;;;;;5034414;28;20045;-67
2023/03/11 12:17:12;;;;;;;9.15;5.05;;;;;;;;;;5034047;28;20696;-67
2023/03/11 12:19:38;;;;;;;5.40;3.53;;;;;;;;;;5034565;28;20049;-67
2023/03/11 12:22:28;;;;;;;6.72;3.85;;;;;;;;;;5035649;28;20060;-68
2023/03/11 12:25:14;;;;;;;6.30;3.38;;;;;;;;;;5026298;28;20076;-68
2023/03/11 12:27:46;;;;;;;5.95;4.07;;;;;;;;;;5025923;28;20467;-69
2023/03/11 12:30:33;;;;;;;7.27;3.47;;;;;;;;;;5012647;28;20138;-68
2023/03/11 12:33:04;;;;;;;8.38;3.80;;;;;;;;;;5034124;28;20271;-67
2023/03/11 12:35:31;;;;;;;4.47;2.28;;;;;;;;;;5035530;28;20064;-68
2023/03/11 12:38:01;;;;;;;6.50;2.83;;;;;;;;;;5034974;28;20063;-68
2023/03/11 12:40:42;;;;;;;7.00;3.45;;;;;;;;;;5034015;28;20472;-68
2023/03/11 12:43:47;;;;;;;10.25;3.38;;;;;;;;;;5035630;28;20090;-69
2023/03/11 12:46:17;;;;;;;6.03;2.78;;;;;;;;;;5030529;28;20163;-67
2023/03/11 12:48:44;;;;;;;5.43;1.85;;;;;;;;;;5015596;28;20071;-67
2023/03/11 12:51:36;;;;;;;3.00;1.00;;;;;;;;;;5036009;28;20127;-67
2023/03/11 12:54:29;;;;;;;4.35;2.22;;;;;;;;;;4980850;28;20144;-67
2023/03/11 12:56:57;;;;;;;5.22;2.70;;;;;;;;;;5021276;28;20103;-67
2023/03/11 12:59:37;;;;;;;7.90;4.00;;;;;;;;;;5014829;28;20053;-68
2023/03/11 13:02:09;;;;;;;2.33;1.15;;;;;;;;;;5015567;28;22195;-66
2023/03/11 13:04:36;;;;;;;4.95;2.70;;;;;;;;;;5013369;28;20046;-68
2023/03/11 13:07:12;;;;;;;6.18;2.78;;;;;;;;;;5013353;28;20068;-67
2023/03/11 13:09:39;;;;;;;4.22;2.58;;;;;;;;;;5014325;28;20038;-68
2023/03/11 13:12:26;;;;;;;5.25;3.25;;;;;;;;;;5013596;28;20057;-68
2023/03/11 13:15:11;;;;;;;3.33;1.80;;;;;;;;;;4998422;28;20728;-66
2023/03/11 13:17:38;;;;;;;4.85;3.05;;;;;;;;;;5017107;28;20061;-68
2023/03/11 13:20:25;;;;;;;6.30;3.35;;;;;;;;;;5017650;28;20034;-67
2023/03/11 13:22:52;;;;;;;7.35;5.10;;;;;;;;;;5016354;28;20088;-68
2023/03/11 13:25:39;;;;;;;1.20;0.82;;;;;;;;;;5018370;28;20037;-68
2023/03/11 13:28:15;;;;;;;3.83;2.38;;;;;;;;;;5021117;28;20129;-68
2023/03/11 13:30:49;;;;;;;6.03;2.53;;;;;;;;;;5017461;28;20099;-68
2023/03/11 13:33:32;;;;;;;6.97;3.83;;;;;;;;;;5018523;28;20037;-67
2023/03/11 13:35:58;;;;;;;3.35;1.98;;;;;;;;;;5032079;28;20041;-68
2023/03/11 13:38:39;;;;;;;12.35;3.70;;;;;;;;;;5017099;28;20612;-67
2023/03/11 13:41:32;;;;;;;4.65;2.53;;;;;;;;;;5020015;28;20041;-68
2023/03/11 13:44:05;;;;;;;8.87;3.87;;;;;;;;;;5014127;28;20065;-67
2023/03/11 13:46:40;;;;;;;5.53;3.53;;;;;;;;;;5015798;28;20033;-68
2023/03/11 13:49:12;;;;;;;9.52;4.85;;;;;;;;;;5017883;28;20470;-68
2023/03/11 13:51:41;;;;;;;5.18;2.60;;;;;;;;;;5015283;28;20557;-68
2023/03/11 13:54:18;;;;;;;5.20;3.33;;;;;;;;;;5026226;28;20142;-67
2023/03/11 13:56:49;;;;;;;4.63;2.85;;;;;;;;;;5021376;28;20044;-67
2023/03/11 13:59:26;;;;;;;12.95;5.70;;;;;;;;;;5022723;28;20080;-67
2023/03/11 14:02:13;;;;;;;5.38;3.20;;;;;;;;;;5037141;28;20032;-67
2023/03/11 14:04:42;;;;;;;6.28;4.15;;;;;;;;;;5037295;28;20044;-68
2023/03/11 14:07:13;;;;;;;6.25;2.28;;;;;;;;;;5036248;28;20485;-67
2023/03/11 14:09:40;;;;;;;6.10;2.28;;;;;;;;;;5037677;28;20045;-68
2023/03/11 14:12:07;;;;;;;1.90;1.17;;;;;;;;;;5037244;28;20041;-67
2023/03/11 14:14:58;;;;;;;2.03;1.55;;;;;;;;;;5037216;28;20099;-67
2023/03/11 14:17:25;;;;;;;0.75;0.68;;;;;;;;;;5036838;28;20064;-67
2023/03/11 14:20:06;;;;;;;5.68;2.85;;;;;;;;;;5036718;28;20057;-68
2023/03/11 14:22:33;;;;;;;4.80;2.80;;;;;;;;;;5035629;28;20087;-68
2023/03/11 14:25:01;;;;;;;5.78;2.80;;;;;;;;;;5019095;28;20049;-67
2023/03/11 14:27:29;;;;;;;5.45;3.60;;;;;;;;;;5036958;28;20041;-70
2023/03/11 14:29:56;;;;;;;13.65;5.25;;;;;;;;;;5037364;28;20068;-69
2023/03/11 14:32:27;;;;;;;6.55;3.28;;;;;;;;;;5029610;28;20059;-67
2023/03/11 14:34:54;;;;;;;5.60;3.38;;;;;;;;;;5035403;28;20046;-68
2023/03/11 14:37:31;;;;;;;7.53;4.25;;;;;;;;;;5035840;28;20056;-69
2023/03/11 14:39:59;;;;;;;12.00;3.10;;;;;;;;;;5038141;28;20531;-68
2023/03/11 14:42:28;;;;;;;6.00;2.90;;;;;;;;;;5035347;28;20044;-70
2023/03/11 14:45:04;;;;;;;6.85;4.20;;;;;;;;;;5036160;28;20506;-68
2023/03/11 14:47:30;;;;;;;4.03;1.70;;;;;;;;;;5035850;28;20535;-66
2023/03/11 14:49:57;;;;;;;10.57;4.68;;;;;;;;;;5036098;28;20068;-67
2023/03/11 14:52:33;;;;;;;4.05;2.55;;;;;;;;;;5035412;28;20051;-70
2023/03/11 14:55:00;;;;;;;9.20;4.82;;;;;;;;;;5034420;28;20052;-68